Time;durP1;ratioP1;P1;durP2;ratioP2;P2;SDS_P1;SDS_P2;PMS_P1;PMS_P2;Temp;Humidity;BMP_temperature;BMP_pressure;BME280_temperature;BME280_humidity;BME280_pressure;Samples;Min_cycle;Max_cycle;Signal;HPM_P1;HPM_P2
2023/12/15 00:01:30;;;;;;;61.88;31.27;;;;;;;;;;6080665;29;20059;-85
2023/12/15 00:04:32;;;;;;;62.00;30.75;;;;;;;;;;6087849;29;20145;-82
2023/12/15 00:07:33;;;;;;;53.28;29.75;;;;;;;;;;6091545;29;20056;-83
2023/12/15 00:10:35;;;;;;;53.55;28.50;;;;;;;;;;6080029;29;20056;-84
2023/12/15 00:13:39;;;;;;;60.15;30.30;;;;;;;;;;6085639;29;20060;-84
2023/12/15 00:16:40;;;;;;;52.72;28.65;;;;;;;;;;6080561;29;20079;-83
2023/12/15 00:19:42;;;;;;;56.55;30.05;;;;;;;;;;6081722;29;20053;-84
2023/12/15 00:22:44;;;;;;;51.75;28.17;;;;;;;;;;6079095;29;20057;-84
2023/12/15 00:25:46;;;;;;;55.72;29.60;;;;;;;;;;6080550;29;20059;-84
2023/12/15 00:28:49;;;;;;;51.63;27.63;;;;;;;;;;6084384;29;20105;-84
2023/12/15 00:31:51;;;;;;;49.45;26.63;;;;;;;;;;6082145;29;20126;-84
2023/12/15 00:34:53;;;;;;;60.22;28.02;;;;;;;;;;6083740;29;20055;-85
2023/12/15 00:37:55;;;;;;;48.35;26.85;;;;;;;;;;6087124;29;20167;-84
2023/12/15 00:40:56;;;;;;;46.13;26.73;;;;;;;;;;6083788;29;20064;-84
2023/12/15 00:43:59;;;;;;;51.10;27.48;;;;;;;;;;6080913;29;20048;-84
2023/12/15 00:47:01;;;;;;;53.33;28.40;;;;;;;;;;6086035;29;20060;-84
2023/12/15 00:50:05;;;;;;;52.92;27.05;;;;;;;;;;6087672;29;20056;-83
2023/12/15 00:53:06;;;;;;;48.80;25.87;;;;;;;;;;6086122;29;20119;-84
2023/12/15 00:56:09;;;;;;;53.85;28.05;;;;;;;;;;6087513;29;20070;-84
2023/12/15 00:59:13;;;;;;;48.05;26.05;;;;;;;;;;6083696;29;20352;-84
2023/12/15 01:02:14;;;;;;;50.30;26.27;;;;;;;;;;6084607;29;20336;-84
2023/12/15 01:05:16;;;;;;;47.85;26.48;;;;;;;;;;6080627;29;20080;-84
2023/12/15 01:08:18;;;;;;;47.95;25.60;;;;;;;;;;6080968;29;20111;-84
2023/12/15 01:11:20;;;;;;;47.17;26.40;;;;;;;;;;6075852;29;20067;-83
2023/12/15 01:14:23;;;;;;;52.00;26.15;;;;;;;;;;6082933;29;20355;-83
2023/12/15 01:17:25;;;;;;;51.00;26.90;;;;;;;;;;6080033;29;20057;-83
2023/12/15 01:20:27;;;;;;;51.30;27.60;;;;;;;;;;6085658;29;20060;-84
2023/12/15 01:23:29;;;;;;;53.95;27.98;;;;;;;;;;6080511;29;20052;-84
2023/12/15 01:26:30;;;;;;;50.28;27.25;;;;;;;;;;6086342;29;20061;-84
2023/12/15 01:29:34;;;;;;;51.10;27.50;;;;;;;;;;6080521;29;20245;-84
2023/12/15 01:32:35;;;;;;;50.10;29.02;;;;;;;;;;6082627;29;20067;-83
2023/12/15 01:35:37;;;;;;;54.35;28.83;;;;;;;;;;6084808;29;20075;-83
2023/12/15 01:38:39;;;;;;;56.45;30.13;;;;;;;;;;6081057;29;20064;-83
2023/12/15 01:41:40;;;;;;;55.47;29.67;;;;;;;;;;6084248;29;20057;-83
2023/12/15 01:44:44;;;;;;;50.00;27.77;;;;;;;;;;6078591;29;20232;-83
2023/12/15 01:47:46;;;;;;;51.50;27.80;;;;;;;;;;6082479;29;20103;-83
2023/12/15 01:50:47;;;;;;;57.60;27.98;;;;;;;;;;6080618;29;20513;-84
2023/12/15 01:53:49;;;;;;;50.50;27.65;;;;;;;;;;6082388;29;20095;-83
2023/12/15 01:56:51;;;;;;;57.00;29.50;;;;;;;;;;6082864;29;20354;-85
2023/12/15 01:59:54;;;;;;;53.13;27.70;;;;;;;;;;6081810;29;20363;-83
2023/12/15 02:02:56;;;;;;;53.67;29.33;;;;;;;;;;6079043;29;20366;-83
2023/12/15 02:05:57;;;;;;;55.22;28.38;;;;;;;;;;6078285;29;20056;-84
2023/12/15 02:08:59;;;;;;;54.75;27.42;;;;;;;;;;6081273;29;20063;-83
2023/12/15 02:12:01;;;;;;;55.83;28.08;;;;;;;;;;6085029;29;20056;-83
2023/12/15 02:15:07;;;;;;;51.50;28.58;;;;;;;;;;6084059;29;20060;-82
2023/12/15 02:18:09;;;;;;;61.00;29.27;;;;;;;;;;6083874;29;20064;-84
2023/12/15 02:21:10;;;;;;;65.32;30.00;;;;;;;;;;6086875;29;20056;-82
2023/12/15 02:24:14;;;;;;;59.28;28.75;;;;;;;;;;6086347;29;20060;-83
2023/12/15 02:27:15;;;;;;;55.17;28.95;;;;;;;;;;6087371;29;20076;-83
2023/12/15 02:30:17;;;;;;;63.00;28.83;;;;;;;;;;6082163;29;20060;-82
2023/12/15 02:33:19;;;;;;;52.03;27.67;;;;;;;;;;6079608;29;20112;-84
2023/12/15 02:36:21;;;;;;;57.70;29.65;;;;;;;;;;6082974;29;20068;-84
2023/12/15 02:39:24;;;;;;;52.75;28.63;;;;;;;;;;6080429;29;20056;-83
2023/12/15 02:42:26;;;;;;;58.35;29.50;;;;;;;;;;6076430;29;20137;-82
2023/12/15 02:45:27;;;;;;;55.65;29.42;;;;;;;;;;6079088;29;20264;-83
2023/12/15 02:48:29;;;;;;;59.20;30.40;;;;;;;;;;6074612;29;20060;-85
2023/12/15 02:51:32;;;;;;;61.97;29.95;;;;;;;;;;6077060;29;20056;-84
2023/12/15 02:54:35;;;;;;;60.30;29.17;;;;;;;;;;6077093;29;20049;-82
2023/12/15 02:57:37;;;;;;;58.75;29.15;;;;;;;;;;6081079;29;20061;-83
2023/12/15 03:00:38;;;;;;;57.83;29.30;;;;;;;;;;6083114;29;20059;-83
2023/12/15 03:03:40;;;;;;;59.25;30.75;;;;;;;;;;6084199;29;20415;-84
2023/12/15 03:06:42;;;;;;;60.38;29.42;;;;;;;;;;6063648;29;20248;-83
2023/12/15 03:09:46;;;;;;;57.80;29.40;;;;;;;;;;6080116;29;20053;-83
2023/12/15 03:12:47;;;;;;;59.25;29.83;;;;;;;;;;6082391;29;20275;-85
2023/12/15 03:15:49;;;;;;;56.95;28.23;;;;;;;;;;6082592;29;20122;-84
2023/12/15 03:18:51;;;;;;;60.70;29.20;;;;;;;;;;6084809;29;20360;-85
2023/12/15 03:21:53;;;;;;;63.20;30.50;;;;;;;;;;6084397;29;20056;-82
2023/12/15 03:24:56;;;;;;;61.53;29.40;;;;;;;;;;6078394;29;20248;-84
2023/12/15 03:27:58;;;;;;;60.90;27.97;;;;;;;;;;6081754;29;20059;-82
2023/12/15 03:31:00;;;;;;;61.65;29.02;;;;;;;;;;6082493;29;20052;-82
2023/12/15 03:34:01;;;;;;;53.15;27.65;;;;;;;;;;6078922;29;20060;-82
2023/12/15 03:37:03;;;;;;;49.30;26.17;;;;;;;;;;6081594;29;20371;-81
2023/12/15 03:40:08;;;;;;;48.80;26.27;;;;;;;;;;6076240;29;20261;-82
2023/12/15 03:43:09;;;;;;;52.45;27.25;;;;;;;;;;6079572;29;20049;-83
2023/12/15 03:46:12;;;;;;;51.85;25.50;;;;;;;;;;6078901;29;20374;-81
2023/12/15 03:49:14;;;;;;;51.88;26.95;;;;;;;;;;6076658;29;20322;-81
2023/12/15 03:52:15;;;;;;;49.97;26.10;;;;;;;;;;6078315;29;20255;-81
2023/12/15 03:55:18;;;;;;;52.60;26.05;;;;;;;;;;6082067;29;20051;-84
2023/12/15 03:58:20;;;;;;;50.42;26.42;;;;;;;;;;6086963;29;20135;-81
2023/12/15 04:01:22;;;;;;;47.28;26.67;;;;;;;;;;6087522;29;20068;-82
2023/12/15 04:04:23;;;;;;;49.80;26.77;;;;;;;;;;6085274;29;20071;-82
2023/12/15 04:07:25;;;;;;;53.55;26.70;;;;;;;;;;6083083;29;20060;-81
2023/12/15 04:10:28;;;;;;;54.60;27.13;;;;;;;;;;6087979;29;20271;-82
2023/12/15 04:13:30;;;;;;;50.92;24.50;;;;;;;;;;6089421;29;20053;-82
2023/12/15 04:16:32;;;;;;;47.33;25.35;;;;;;;;;;6083955;29;20064;-82
2023/12/15 04:19:34;;;;;;;49.50;25.30;;;;;;;;;;6085311;29;20049;-82
2023/12/15 04:22:35;;;;;;;44.58;23.83;;;;;;;;;;6084069;29;20056;-83
2023/12/15 04:25:39;;;;;;;44.42;22.10;;;;;;;;;;6084460;29;20060;-83
2023/12/15 04:28:40;;;;;;;42.22;22.63;;;;;;;;;;6081987;29;20852;-83
2023/12/15 04:31:43;;;;;;;43.78;23.25;;;;;;;;;;6079921;29;20138;-82
2023/12/15 04:34:44;;;;;;;44.33;22.25;;;;;;;;;;6089899;29;20195;-83
2023/12/15 04:37:46;;;;;;;43.22;22.33;;;;;;;;;;6087475;29;20067;-78
2023/12/15 04:40:50;;;;;;;38.20;19.95;;;;;;;;;;6085532;29;20351;-78
2023/12/15 04:43:52;;;;;;;36.42;20.70;;;;;;;;;;6085509;29;20116;-78
2023/12/15 04:46:55;;;;;;;35.85;19.23;;;;;;;;;;6083778;29;20049;-79
2023/12/15 04:49:57;;;;;;;36.55;19.77;;;;;;;;;;6085360;29;20130;-78
2023/12/15 04:52:59;;;;;;;37.10;19.75;;;;;;;;;;6086062;29;20061;-76
2023/12/15 04:56:02;;;;;;;39.25;18.17;;;;;;;;;;6084650;29;20052;-76
2023/12/15 04:59:03;;;;;;;35.25;18.80;;;;;;;;;;6084512;29;20256;-78
2023/12/15 05:02:05;;;;;;;34.83;17.50;;;;;;;;;;6089358;29;20335;-78
2023/12/15 05:05:08;;;;;;;30.33;17.83;;;;;;;;;;6089149;29;20064;-77
2023/12/15 05:08:09;;;;;;;33.22;17.52;;;;;;;;;;6083429;29;20304;-78
2023/12/15 05:11:12;;;;;;;31.55;17.02;;;;;;;;;;6080684;29;20064;-78
2023/12/15 05:14:14;;;;;;;30.92;16.65;;;;;;;;;;6079125;29;20071;-79
2023/12/15 05:17:17;;;;;;;25.40;15.55;;;;;;;;;;6075995;29;20064;-78
2023/12/15 05:20:20;;;;;;;25.30;14.27;;;;;;;;;;6079386;29;20059;-76
2023/12/15 05:23:21;;;;;;;28.25;15.02;;;;;;;;;;6082671;29;20075;-78
2023/12/15 05:26:24;;;;;;;26.67;14.48;;;;;;;;;;6082986;29;20232;-77
2023/12/15 05:29:26;;;;;;;27.10;13.85;;;;;;;;;;6081076;29;20352;-75
2023/12/15 05:32:28;;;;;;;29.58;15.35;;;;;;;;;;6085167;29;20060;-78
2023/12/15 05:35:29;;;;;;;26.38;14.45;;;;;;;;;;6083023;29;20067;-78
2023/12/15 05:38:31;;;;;;;27.05;14.88;;;;;;;;;;6079047;29;20262;-77
2023/12/15 05:41:34;;;;;;;27.20;15.38;;;;;;;;;;6085053;29;20060;-78
2023/12/15 05:44:39;;;;;;;25.00;15.15;;;;;;;;;;6084950;29;20511;-79
2023/12/15 05:47:41;;;;;;;33.53;15.48;;;;;;;;;;6077913;29;20056;-83
2023/12/15 05:50:43;;;;;;;27.23;14.07;;;;;;;;;;6083275;29;20116;-82
2023/12/15 05:53:44;;;;;;;23.92;14.68;;;;;;;;;;6084720;29;20241;-82
2023/12/15 05:56:48;;;;;;;32.28;15.98;;;;;;;;;;6084272;29;20057;-82
2023/12/15 05:59:50;;;;;;;29.35;16.52;;;;;;;;;;6079605;29;20063;-83
2023/12/15 06:02:51;;;;;;;25.25;15.30;;;;;;;;;;6077348;29;20048;-83
2023/12/15 06:05:53;;;;;;;26.92;14.48;;;;;;;;;;6079058;29;20064;-82
2023/12/15 06:08:55;;;;;;;27.27;14.85;;;;;;;;;;6077954;29;20052;-82
2023/12/15 06:11:58;;;;;;;22.00;13.68;;;;;;;;;;6080880;29;20059;-83
2023/12/15 06:15:00;;;;;;;26.95;13.65;;;;;;;;;;6081616;29;20056;-83
2023/12/15 06:18:01;;;;;;;23.27;14.02;;;;;;;;;;6080762;29;20067;-83
2023/12/15 06:21:03;;;;;;;22.13;13.45;;;;;;;;;;6082615;29;20056;-83
2023/12/15 06:24:05;;;;;;;27.40;13.77;;;;;;;;;;6082802;29;20268;-83
2023/12/15 06:27:09;;;;;;;25.33;13.95;;;;;;;;;;6081542;29;20104;-84
2023/12/15 06:30:12;;;;;;;23.73;13.98;;;;;;;;;;6084517;29;20345;-84
2023/12/15 06:33:14;;;;;;;28.00;15.50;;;;;;;;;;6081282;29;20056;-83
2023/12/15 06:36:15;;;;;;;27.17;15.30;;;;;;;;;;6079203;29;20057;-82
2023/12/15 06:39:18;;;;;;;28.88;14.48;;;;;;;;;;6084033;29;20049;-83
2023/12/15 06:42:22;;;;;;;22.92;13.40;;;;;;;;;;6084299;29;20053;-82
2023/12/15 06:45:23;;;;;;;24.40;13.88;;;;;;;;;;6083564;29;20060;-83
2023/12/15 06:48:25;;;;;;;29.75;13.18;;;;;;;;;;6078721;29;20142;-85
2023/12/15 06:51:27;;;;;;;29.52;14.35;;;;;;;;;;6079922;29;20063;-83
2023/12/15 06:54:29;;;;;;;28.58;13.25;;;;;;;;;;6076828;29;20040;-84
2023/12/15 06:57:32;;;;;;;26.98;14.15;;;;;;;;;;6075560;29;20056;-85
2023/12/15 07:00:33;;;;;;;28.17;14.35;;;;;;;;;;6079101;29;20344;-85
2023/12/15 07:03:35;;;;;;;31.13;15.93;;;;;;;;;;6079846;29;20065;-84
2023/12/15 07:06:37;;;;;;;30.17;16.48;;;;;;;;;;6080189;29;20064;-85
2023/12/15 07:09:39;;;;;;;32.05;16.88;;;;;;;;;;6084325;29;20052;-84
2023/12/15 07:12:42;;;;;;;38.38;17.77;;;;;;;;;;6078209;29;20063;-85
2023/12/15 07:15:44;;;;;;;28.67;16.73;;;;;;;;;;6079307;29;20499;-84
2023/12/15 07:18:46;;;;;;;30.45;17.00;;;;;;;;;;6082123;29;20387;-85
2023/12/15 07:21:48;;;;;;;26.58;15.50;;;;;;;;;;6081837;29;20344;-85
2023/12/15 07:24:50;;;;;;;30.63;15.82;;;;;;;;;;6080261;29;20355;-87
2023/12/15 07:27:53;;;;;;;28.25;15.18;;;;;;;;;;6080833;29;20080;-86
2023/12/15 07:30:55;;;;;;;22.52;13.18;;;;;;;;;;6086121;29;20180;-84
2023/12/15 07:33:57;;;;;;;27.15;14.25;;;;;;;;;;6082746;29;20079;-85
2023/12/15 07:36:59;;;;;;;23.48;13.85;;;;;;;;;;6084745;29;20057;-86
2023/12/15 07:40:01;;;;;;;24.88;14.27;;;;;;;;;;6087585;29;20108;-84
2023/12/15 07:43:06;;;;;;;24.20;14.32;;;;;;;;;;6079423;29;20071;-86
2023/12/15 07:46:16;;;;;;;25.27;14.82;;;;;;;;;;6076499;29;20340;-85
2023/12/15 07:49:18;;;;;;;26.45;14.10;;;;;;;;;;6085638;29;20392;-86
2023/12/15 07:52:20;;;;;;;24.00;14.32;;;;;;;;;;6080792;29;20387;-84
2023/12/15 07:55:21;;;;;;;36.47;15.88;;;;;;;;;;6088387;29;20047;-84
2023/12/15 07:58:24;;;;;;;28.48;15.35;;;;;;;;;;6084260;29;20061;-86
2023/12/15 08:01:26;;;;;;;30.77;15.23;;;;;;;;;;6087179;29;20056;-85
2023/12/15 08:04:28;;;;;;;28.73;14.27;;;;;;;;;;6085179;29;20049;-86
2023/12/15 08:07:30;;;;;;;22.25;13.25;;;;;;;;;;6089117;29;20055;-86
2023/12/15 08:10:34;;;;;;;29.00;14.38;;;;;;;;;;6087929;29;20118;-86
2023/12/15 08:13:37;;;;;;;26.60;13.10;;;;;;;;;;6085011;29;20531;-86
2023/12/15 08:16:39;;;;;;;25.20;13.83;;;;;;;;;;6086914;29;20079;-86
2023/12/15 08:19:42;;;;;;;23.23;12.73;;;;;;;;;;6082943;29;20402;-85
2023/12/15 08:22:44;;;;;;;24.63;12.77;;;;;;;;;;6084230;29;20044;-84
2023/12/15 08:25:45;;;;;;;22.35;13.27;;;;;;;;;;6083746;29;20112;-85
2023/12/15 08:28:48;;;;;;;34.58;13.68;;;;;;;;;;6083068;29;20072;-84
2023/12/15 08:31:50;;;;;;;19.63;12.93;;;;;;;;;;6084372;29;20053;-84
2023/12/15 08:34:52;;;;;;;25.23;14.45;;;;;;;;;;6080703;29;20061;-84
2023/12/15 08:37:56;;;;;;;27.15;13.77;;;;;;;;;;6079049;29;20061;-84
2023/12/15 08:40:58;;;;;;;;;;;;;;;;;;6081356;29;20067;-87
2023/12/15 08:44:02;;;;;;;22.35;12.00;;;;;;;;;;6082528;29;19926;-86
2023/12/15 08:47:03;;;;;;;22.45;12.63;;;;;;;;;;6084575;29;20063;-86
2023/12/15 08:50:06;;;;;;;22.83;12.18;;;;;;;;;;6082372;29;20055;-83
2023/12/15 08:53:07;;;;;;;20.67;11.82;;;;;;;;;;6085719;29;20197;-85
2023/12/15 08:56:09;;;;;;;18.75;11.50;;;;;;;;;;6087353;29;20068;-85
2023/12/15 08:59:12;;;;;;;17.52;12.00;;;;;;;;;;6083373;29;20052;-85
2023/12/15 09:02:14;;;;;;;18.53;10.63;;;;;;;;;;6078408;29;20398;-85
2023/12/15 09:05:16;;;;;;;18.48;11.15;;;;;;;;;;6083693;29;20055;-86
2023/12/15 09:08:18;;;;;;;17.48;10.23;;;;;;;;;;6087148;29;20066;-86
2023/12/15 09:11:20;;;;;;;19.38;10.13;;;;;;;;;;6082028;29;20343;-85
2023/12/15 09:14:23;;;;;;;17.88;10.48;;;;;;;;;;6079801;29;20055;-86
2023/12/15 09:17:25;;;;;;;17.08;9.75;;;;;;;;;;6084875;29;20055;-85
2023/12/15 09:20:27;;;;;;;17.33;8.60;;;;;;;;;;6079291;29;20060;-85
2023/12/15 09:23:28;;;;;;;18.08;9.45;;;;;;;;;;6080488;29;20391;-86
2023/12/15 09:26:30;;;;;;;17.48;9.23;;;;;;;;;;6079113;29;20056;-86
2023/12/15 09:29:35;;;;;;;14.48;9.30;;;;;;;;;;6082133;29;20052;-88
2023/12/15 09:32:37;;;;;;;15.32;9.07;;;;;;;;;;6083531;29;20057;-86
2023/12/15 09:35:39;;;;;;;14.07;9.02;;;;;;;;;;6081289;29;20065;-85
2023/12/15 09:38:40;;;;;;;13.13;8.70;;;;;;;;;;6082774;29;20057;-86
2023/12/15 09:41:42;;;;;;;15.35;9.88;;;;;;;;;;6083207;29;20091;-86
2023/12/15 09:44:45;;;;;;;16.08;10.52;;;;;;;;;;6079172;29;20135;-86
2023/12/15 09:47:48;;;;;;;18.47;10.57;;;;;;;;;;6081781;29;20256;-86
2023/12/15 09:50:52;;;;;;;19.20;10.45;;;;;;;;;;6082867;29;20057;-88
2023/12/15 09:53:54;;;;;;;18.25;9.63;;;;;;;;;;6086991;29;20056;-85
2023/12/15 09:56:56;;;;;;;17.63;9.75;;;;;;;;;;6080845;29;20052;-85
2023/12/15 09:59:59;;;;;;;19.88;10.20;;;;;;;;;;6083152;29;20063;-85
2023/12/15 10:03:01;;;;;;;18.70;10.03;;;;;;;;;;6085072;29;20067;-87
2023/12/15 10:06:03;;;;;;;14.23;9.45;;;;;;;;;;6082583;29;20492;-87
2023/12/15 10:09:11;;;;;;;16.55;9.73;;;;;;;;;;6084992;29;20267;-86
2023/12/15 10:12:13;;;;;;;14.00;9.45;;;;;;;;;;6083606;29;20048;-87
2023/12/15 10:15:17;;;;;;;14.00;9.35;;;;;;;;;;6079083;29;20070;-86
2023/12/15 10:18:18;;;;;;;15.93;8.80;;;;;;;;;;6079862;29;20056;-86
2023/12/15 10:21:20;;;;;;;14.23;8.82;;;;;;;;;;6083341;29;20442;-86
2023/12/15 10:24:23;;;;;;;16.38;8.85;;;;;;;;;;6077874;29;20245;-86
2023/12/15 10:27:25;;;;;;;16.55;8.93;;;;;;;;;;6083816;29;20052;-80
2023/12/15 10:30:28;;;;;;;12.60;8.55;;;;;;;;;;6078892;29;20112;-81
2023/12/15 10:33:30;;;;;;;15.97;9.60;;;;;;;;;;6081166;29;20051;-81
2023/12/15 10:36:33;;;;;;;13.57;9.35;;;;;;;;;;6083841;29;20823;-81
2023/12/15 10:39:35;;;;;;;14.55;9.50;;;;;;;;;;6085811;29;20056;-81
2023/12/15 10:42:37;;;;;;;13.23;9.10;;;;;;;;;;6080356;29;20055;-82
2023/12/15 10:45:40;;;;;;;18.23;9.60;;;;;;;;;;6082484;29;20144;-81
2023/12/15 10:48:42;;;;;;;15.60;10.10;;;;;;;;;;6080450;29;20057;-80
2023/12/15 10:51:44;;;;;;;15.88;9.40;;;;;;;;;;6079490;29;20064;-80
2023/12/15 10:54:47;;;;;;;16.98;10.23;;;;;;;;;;6077614;29;20336;-81
2023/12/15 10:57:48;;;;;;;18.83;10.15;;;;;;;;;;6078682;29;20059;-81
2023/12/15 11:00:51;;;;;;;14.60;9.70;;;;;;;;;;6080309;29;20367;-82
2023/12/15 11:03:53;;;;;;;17.88;9.35;;;;;;;;;;6084690;29;20064;-79
2023/12/15 11:06:56;;;;;;;15.35;9.88;;;;;;;;;;6087860;29;20060;-79
2023/12/15 11:09:59;;;;;;;14.75;10.30;;;;;;;;;;6087077;29;20069;-81
2023/12/15 11:13:01;;;;;;;17.73;10.38;;;;;;;;;;6088646;29;20057;-82
2023/12/15 11:16:05;;;;;;;16.80;9.85;;;;;;;;;;6091611;29;20056;-81
2023/12/15 11:19:06;;;;;;;17.80;9.77;;;;;;;;;;6092191;29;20064;-79
2023/12/15 11:22:09;;;;;;;15.02;10.32;;;;;;;;;;6087169;29;20061;-78
2023/12/15 11:25:18;;;;;;;15.68;10.90;;;;;;;;;;6088075;29;20289;-80
2023/12/15 11:28:21;;;;;;;19.67;10.13;;;;;;;;;;6089265;29;20201;-80
2023/12/15 11:31:28;;;;;;;17.05;10.55;;;;;;;;;;6088228;29;20083;-81
2023/12/15 11:34:40;;;;;;;17.52;9.82;;;;;;;;;;6087900;29;20131;-79
2023/12/15 11:37:42;;;;;;;16.63;10.25;;;;;;;;;;6082372;29;20052;-84
2023/12/15 11:40:44;;;;;;;20.10;10.70;;;;;;;;;;6087413;29;20060;-84
2023/12/15 11:43:46;;;;;;;13.90;9.80;;;;;;;;;;6087789;29;20260;-85
2023/12/15 11:46:49;;;;;;;13.05;9.00;;;;;;;;;;6089877;29;20049;-85
2023/12/15 11:49:51;;;;;;;14.00;9.98;;;;;;;;;;6088865;29;20052;-85
2023/12/15 11:52:56;;;;;;;16.73;9.82;;;;;;;;;;6081269;29;20112;-85
2023/12/15 11:56:00;;;;;;;17.92;9.43;;;;;;;;;;6086504;29;20108;-85
2023/12/15 11:59:02;;;;;;;13.50;8.82;;;;;;;;;;6086373;29;20052;-86
2023/12/15 12:02:06;;;;;;;14.20;8.40;;;;;;;;;;6086385;29;20112;-84
2023/12/15 12:05:08;;;;;;;12.68;8.48;;;;;;;;;;6084229;29;20045;-85
2023/12/15 12:08:11;;;;;;;13.25;8.80;;;;;;;;;;6088752;29;20112;-84
2023/12/15 12:11:13;;;;;;;11.68;8.40;;;;;;;;;;6090424;29;20422;-86
2023/12/15 12:14:15;;;;;;;13.57;8.98;;;;;;;;;;6081440;29;20055;-85
2023/12/15 12:17:18;;;;;;;11.45;8.50;;;;;;;;;;6085342;29;20061;-85
2023/12/15 12:20:20;;;;;;;13.25;8.85;;;;;;;;;;6090219;29;20056;-85
2023/12/15 12:23:24;;;;;;;14.85;8.93;;;;;;;;;;6083505;29;20410;-85
2023/12/15 12:26:26;;;;;;;12.70;9.20;;;;;;;;;;6080490;29;20256;-84
2023/12/15 12:29:31;;;;;;;17.95;10.32;;;;;;;;;;6088472;29;20268;-85
2023/12/15 12:32:34;;;;;;;13.60;9.77;;;;;;;;;;6084773;29;20056;-85
2023/12/15 12:35:36;;;;;;;14.95;9.48;;;;;;;;;;6084951;29;20063;-86
2023/12/15 12:38:38;;;;;;;14.93;10.32;;;;;;;;;;6082481;29;20052;-86
2023/12/15 12:41:40;;;;;;;15.02;9.35;;;;;;;;;;6080992;29;20065;-82
2023/12/15 12:44:42;;;;;;;14.00;9.73;;;;;;;;;;6079191;29;20056;-85
2023/12/15 12:47:49;;;;;;;15.93;9.73;;;;;;;;;;6082512;29;20060;-85
2023/12/15 12:50:51;;;;;;;17.70;9.75;;;;;;;;;;6085135;29;20119;-85
2023/12/15 12:53:53;;;;;;;15.68;10.45;;;;;;;;;;6086680;29;20080;-84
2023/12/15 12:56:55;;;;;;;17.02;10.95;;;;;;;;;;6084084;29;20359;-85
2023/12/15 12:59:57;;;;;;;16.10;10.88;;;;;;;;;;6090383;29;20061;-85
2023/12/15 13:03:00;;;;;;;18.25;11.38;;;;;;;;;;6086577;29;20052;-85
2023/12/15 13:06:02;;;;;;;16.88;10.85;;;;;;;;;;6086519;29;20064;-85
2023/12/15 13:09:03;;;;;;;15.65;10.90;;;;;;;;;;6083854;29;20048;-85
2023/12/15 13:12:05;;;;;;;20.33;11.50;;;;;;;;;;6083689;29;20446;-85
2023/12/15 13:15:08;;;;;;;18.83;12.90;;;;;;;;;;6082597;29;20273;-85
2023/12/15 13:18:11;;;;;;;20.38;12.05;;;;;;;;;;6082543;29;20052;-85
2023/12/15 13:21:13;;;;;;;22.92;12.73;;;;;;;;;;6082747;29;20044;-85
2023/12/15 13:24:15;;;;;;;20.85;12.15;;;;;;;;;;6084938;29;20057;-85
2023/12/15 13:27:17;;;;;;;20.67;13.93;;;;;;;;;;6079945;29;20219;-85
2023/12/15 13:30:19;;;;;;;18.40;13.40;;;;;;;;;;6078411;29;20256;-84
2023/12/15 13:33:22;;;;;;;17.90;12.73;;;;;;;;;;6078968;29;20056;-84
2023/12/15 13:36:24;;;;;;;17.70;12.35;;;;;;;;;;6078874;29;20056;-86
2023/12/15 13:39:26;;;;;;;18.30;12.80;;;;;;;;;;6080076;29;20084;-84
2023/12/15 13:42:27;;;;;;;18.40;13.23;;;;;;;;;;6081601;29;20060;-84
2023/12/15 13:45:29;;;;;;;19.27;13.20;;;;;;;;;;6083603;29;20371;-85
2023/12/15 13:48:32;;;;;;;20.35;12.82;;;;;;;;;;6083101;29;20064;-84
2023/12/15 13:51:34;;;;;;;18.25;12.57;;;;;;;;;;6085949;29;20055;-85
2023/12/15 13:54:36;;;;;;;21.00;12.88;;;;;;;;;;6077445;29;20049;-85
2023/12/15 13:57:38;;;;;;;19.35;12.90;;;;;;;;;;6081813;29;20052;-86
2023/12/15 14:00:39;;;;;;;18.67;12.90;;;;;;;;;;6082925;29;20053;-85
2023/12/15 14:03:43;;;;;;;23.08;12.38;;;;;;;;;;6087641;29;20344;-84
2023/12/15 14:06:48;;;;;;;;;;;;;;;;;;6084776;29;20064;-85
2023/12/15 14:09:49;;;;;;;18.35;12.38;;;;;;;;;;6087010;29;19923;-85
2023/12/15 14:12:51;;;;;;;16.50;12.27;;;;;;;;;;6081913;29;20041;-85
2023/12/15 14:15:53;;;;;;;20.05;13.32;;;;;;;;;;6083518;29;20048;-84
2023/12/15 14:18:56;;;;;;;19.98;13.75;;;;;;;;;;6076870;29;20056;-84
2023/12/15 14:21:58;;;;;;;20.95;13.25;;;;;;;;;;6079560;29;20060;-86
2023/12/15 14:25:04;;;;;;;19.45;12.65;;;;;;;;;;6078638;29;20053;-84
2023/12/15 14:28:06;;;;;;;19.88;12.93;;;;;;;;;;6083890;29;20119;-84
2023/12/15 14:31:08;;;;;;;16.73;12.52;;;;;;;;;;6078028;29;20064;-84
2023/12/15 14:34:11;;;;;;;22.10;12.10;;;;;;;;;;6084409;29;20079;-84
2023/12/15 14:37:13;;;;;;;20.67;13.27;;;;;;;;;;6081116;29;20055;-85
2023/12/15 14:40:14;;;;;;;21.83;13.15;;;;;;;;;;6081813;29;20485;-84
2023/12/15 14:43:16;;;;;;;21.35;13.82;;;;;;;;;;6083022;29;20071;-83
2023/12/15 14:46:18;;;;;;;19.85;13.18;;;;;;;;;;6080696;29;20101;-86
2023/12/15 14:49:21;;;;;;;19.50;13.48;;;;;;;;;;6079569;29;20365;-84
2023/12/15 14:52:23;;;;;;;21.05;12.95;;;;;;;;;;6084922;29;20066;-85
2023/12/15 14:55:25;;;;;;;21.20;13.55;;;;;;;;;;6080746;29;20048;-84
2023/12/15 14:58:27;;;;;;;22.20;13.43;;;;;;;;;;6079155;29;20067;-84
2023/12/15 15:01:28;;;;;;;19.98;12.95;;;;;;;;;;6076398;29;20059;-84
2023/12/15 15:04:32;;;;;;;19.60;12.50;;;;;;;;;;6079947;29;20064;-84
2023/12/15 15:07:35;;;;;;;18.73;11.65;;;;;;;;;;6079029;29;20059;-84
2023/12/15 15:10:37;;;;;;;19.15;12.48;;;;;;;;;;6078996;29;20159;-84
2023/12/15 15:13:39;;;;;;;26.05;13.48;;;;;;;;;;6077081;29;20288;-85
2023/12/15 15:16:41;;;;;;;18.50;12.55;;;;;;;;;;6079697;29;20053;-84
2023/12/15 15:19:44;;;;;;;22.85;12.70;;;;;;;;;;6085490;29;20057;-85
2023/12/15 15:22:45;;;;;;;22.77;13.90;;;;;;;;;;6080754;29;20056;-84
2023/12/15 15:25:47;;;;;;;20.55;12.98;;;;;;;;;;6082479;29;20333;-84
2023/12/15 15:28:51;;;;;;;22.83;13.18;;;;;;;;;;6081679;29;20064;-84
2023/12/15 15:31:56;;;;;;;21.00;13.38;;;;;;;;;;6078803;29;20349;-85
2023/12/15 15:35:07;;;;;;;21.45;14.05;;;;;;;;;;6078990;29;20087;-84
2023/12/15 15:38:13;;;;;;;21.17;13.68;;;;;;;;;;6081384;29;20154;-84
2023/12/15 15:41:22;;;;;;;21.88;14.35;;;;;;;;;;6081498;29;20247;-83
2023/12/15 15:44:27;;;;;;;22.77;13.38;;;;;;;;;;6079169;29;20056;-84
2023/12/15 15:47:29;;;;;;;24.38;13.85;;;;;;;;;;6077453;29;20156;-84
2023/12/15 15:50:40;;;;;;;22.83;15.02;;;;;;;;;;6085519;29;20265;-83
2023/12/15 15:53:45;;;;;;;27.98;15.00;;;;;;;;;;6088503;29;20060;-84
2023/12/15 15:56:48;;;;;;;25.27;14.55;;;;;;;;;;6081627;29;20056;-86
2023/12/15 15:59:52;;;;;;;23.37;15.00;;;;;;;;;;6083342;29;20075;-84
2023/12/15 16:02:55;;;;;;;;;;;;;;;;;;6082428;29;20448;-85
2023/12/15 16:05:59;;;;;;;21.83;13.90;;;;;;;;;;6083297;29;19927;-83
2023/12/15 16:09:02;;;;;;;27.08;15.07;;;;;;;;;;6084013;29;20110;-84
2023/12/15 16:12:08;;;;;;;25.98;14.63;;;;;;;;;;6085002;29;20263;-84
2023/12/15 16:15:11;;;;;;;24.83;14.05;;;;;;;;;;6087651;29;20087;-84
2023/12/15 16:18:18;;;;;;;24.50;14.55;;;;;;;;;;6080879;29;20061;-84
2023/12/15 16:21:24;;;;;;;22.42;14.40;;;;;;;;;;6084826;29;20135;-84
2023/12/15 16:24:28;;;;;;;22.08;14.10;;;;;;;;;;6084738;29;20347;-85
2023/12/15 16:27:34;;;;;;;;;;;;;;;;;;6084993;29;20317;-85
2023/12/15 16:30:36;;;;;;;23.30;13.60;;;;;;;;;;6086909;29;19931;-85
2023/12/15 16:33:47;;;;;;;24.17;14.35;;;;;;;;;;6086143;29;20059;-84
2023/12/15 16:36:52;;;;;;;28.20;14.80;;;;;;;;;;6084696;29;20048;-84
2023/12/15 16:39:58;;;;;;;24.17;14.88;;;;;;;;;;6082246;29;20067;-84
2023/12/15 16:43:18;;;;;;;28.70;14.88;;;;;;;;;;6081533;29;20364;-85
2023/12/15 16:46:30;;;;;;;26.98;14.57;;;;;;;;;;6081919;29;20116;-85
2023/12/15 16:49:40;;;;;;;25.98;15.30;;;;;;;;;;6081657;29;20052;-85
2023/12/15 16:52:48;;;;;;;24.35;14.55;;;;;;;;;;6081287;29;20057;-85
2023/12/15 16:55:54;;;;;;;25.40;14.77;;;;;;;;;;6081055;29;20347;-84
2023/12/15 16:58:56;;;;;;;25.10;16.57;;;;;;;;;;6080678;29;20059;-86
2023/12/15 17:01:59;;;;;;;29.05;15.43;;;;;;;;;;6084989;29;20664;-84
2023/12/15 17:05:06;;;;;;;29.92;16.08;;;;;;;;;;6081632;29;20067;-84
2023/12/15 17:08:11;;;;;;;29.13;16.15;;;;;;;;;;6085424;29;20072;-85
2023/12/15 17:11:15;;;;;;;28.83;16.23;;;;;;;;;;6085154;29;20056;-85
2023/12/15 17:14:20;;;;;;;29.30;16.70;;;;;;;;;;6081860;29;20040;-84
2023/12/15 17:17:27;;;;;;;32.00;15.93;;;;;;;;;;6083457;29;20060;-84
2023/12/15 17:20:32;;;;;;;27.17;15.13;;;;;;;;;;6083849;29;20052;-85
2023/12/15 17:23:36;;;;;;;30.10;16.85;;;;;;;;;;6087456;29;20274;-85
2023/12/15 17:26:44;;;;;;;27.65;17.05;;;;;;;;;;6087624;29;20072;-85
2023/12/15 17:29:46;;;;;;;27.40;16.75;;;;;;;;;;6082796;29;20494;-84
2023/12/15 17:33:02;;;;;;;27.48;17.17;;;;;;;;;;6082663;29;20123;-85
2023/12/15 17:36:06;;;;;;;29.13;16.70;;;;;;;;;;6086759;29;20109;-85
2023/12/15 17:39:11;;;;;;;30.38;16.67;;;;;;;;;;6080735;29;20064;-85
2023/12/15 17:42:17;;;;;;;;;;;;;;;;;;6080311;29;20075;-85
2023/12/15 17:45:21;;;;;;;25.63;16.10;;;;;;;;;;6081278;29;19934;-84
2023/12/15 17:48:24;;;;;;;31.05;17.02;;;;;;;;;;6079600;29;20052;-84